createdAt,value
2018-07-06T00:10:00.473Z,9.6
2018-07-06T00:30:00.670Z,8.0
2018-07-06T00:50:00.847Z,10.8
2018-07-06T01:10:01.065Z,13.2
2018-07-06T01:30:00.232Z,12.4
2018-07-06T01:50:00.490Z,12.8
2018-07-06T02:10:00.543Z,16.6
2018-07-06T02:30:00.876Z,17.0
2018-07-06T02:50:01.113Z,14.0
2018-07-06T03:10:00.236Z,15.0
2018-07-06T03:30:00.484Z,14.0
2018-07-06T03:50:00.615Z,16.0
2018-07-06T04:10:00.892Z,13.8
2018-07-06T04:30:01.006Z,16.2
2018-07-06T04:50:00.280Z,17.2
2018-07-06T05:10:00.527Z,20.0
2018-07-06T05:30:00.662Z,14.0
2018-07-06T05:50:00.915Z,11.6
2018-07-06T06:10:01.041Z,8.4
2018-07-06T06:15:00.961Z,8.2
2018-07-06T06:25:01.032Z,9.0
2018-07-06T06:30:01.098Z,9.3
2018-07-06T06:35:00.966Z,9.2
2018-07-06T06:40:01.034Z,10.0
2018-07-06T06:45:00.982Z,10.1
2018-07-06T06:50:01.040Z,10.0
2018-07-06T06:55:00.971Z,9.8
2018-07-06T07:00:00.985Z,10.3
2018-07-06T07:05:00.948Z,9.7
2018-07-06T07:10:00.980Z,9.8
2018-07-06T07:15:00.979Z,9.2
2018-07-06T07:25:01.135Z,9.1
2018-07-06T07:30:01.011Z,9.6
2018-07-06T07:40:00.994Z,9.5
2018-07-06T07:45:01.001Z,9.5
2018-07-06T07:50:01.062Z,8.8
2018-07-06T07:55:01.022Z,8.2
2018-07-06T08:00:01.008Z,8.0
2018-07-06T08:05:01.007Z,7.8
2018-07-06T08:10:01.571Z,7.2
2018-07-06T08:15:01.008Z,7.2
2018-07-06T08:20:01.081Z,6.4
2018-07-06T08:25:01.008Z,6.6
2018-07-06T08:30:01.077Z,6.2
2018-07-06T08:35:01.016Z,6.4
2018-07-06T08:50:00.252Z,4.8
2018-07-06T08:55:00.183Z,5.4
2018-07-06T09:00:00.246Z,5.2
2018-07-06T09:05:00.196Z,5.1
2018-07-06T09:10:00.186Z,5.0
2018-07-06T09:15:00.194Z,5.2
2018-07-06T09:20:00.488Z,5.1
2018-07-06T09:25:00.193Z,5.0
2018-07-06T09:30:00.258Z,5.4
2018-07-06T09:35:00.196Z,5.2
2018-07-06T09:40:00.266Z,5.7
2018-07-06T09:45:00.201Z,5.8
2018-07-06T09:50:00.285Z,6.0
2018-07-06T09:55:00.204Z,5.6
2018-07-06T10:00:00.303Z,5.1
2018-07-06T10:05:00.207Z,4.5
2018-07-06T10:10:00.221Z,4.3
2018-07-06T10:15:00.254Z,4.2
2018-07-06T10:25:00.384Z,4.8
2018-07-06T10:30:00.320Z,4.9
2018-07-06T10:50:01.240Z,4.8
2018-07-06T10:56:01.141Z,4.7
2018-07-06T11:01:01.256Z,3.8
2018-07-06T11:06:01.106Z,4.1
2018-07-06T11:17:01.152Z,4.0
2018-07-06T11:22:01.220Z,4.6
2018-07-06T11:27:01.100Z,5.4
2018-07-06T11:32:01.104Z,5.8
2018-07-06T11:37:01.097Z,6.0
2018-07-06T11:47:01.162Z,5.9
2018-07-06T11:52:01.230Z,6.2
2018-07-06T11:57:01.104Z,5.6
2018-07-06T12:02:01.104Z,5.3
2018-07-06T12:07:01.088Z,5.4
2018-07-06T12:12:01.087Z,4.8
2018-07-06T12:17:01.089Z,3.9
2018-07-06T12:22:01.159Z,4.0
2018-07-06T12:32:01.101Z,3.8
2018-07-06T12:37:01.101Z,4.0
2018-07-06T12:42:01.106Z,4.2
2018-07-06T12:52:01.115Z,4.4
2018-07-06T12:57:01.094Z,4.6
2018-07-06T13:02:01.106Z,4.7
2018-07-06T13:07:01.098Z,4.9
2018-07-06T13:17:01.109Z,5.0
2018-07-06T13:22:01.171Z,5.2
2018-07-06T13:27:06.111Z,5.7
2018-07-06T13:32:01.094Z,6.2
2018-07-06T13:37:01.131Z,6.5
2018-07-06T13:42:01.194Z,6.4
2018-07-06T13:47:01.118Z,6.2
2018-07-06T13:52:01.100Z,5.8
2018-07-06T13:57:01.098Z,5.7
2018-07-06T14:07:01.204Z,6.0
2018-07-06T14:13:01.085Z,6.6
2018-07-06T14:18:01.091Z,6.7
2018-07-06T14:28:01.218Z,7.4
2018-07-06T14:33:01.162Z,7.1
2018-07-06T14:43:01.170Z,7.3
2018-07-06T14:48:01.090Z,7.0
2018-07-06T14:53:01.221Z,6.2
2018-07-06T14:58:01.134Z,6.8
2018-07-06T15:03:01.207Z,7.0
2018-07-06T15:08:01.125Z,6.2
2018-07-06T15:13:01.293Z,6.0
2018-07-06T15:18:01.140Z,6.4
2018-07-06T15:23:01.199Z,6.5
2018-07-06T15:28:01.093Z,6.3
2018-07-06T15:33:01.189Z,7.1
2018-07-06T15:38:01.105Z,7.2
2018-07-06T15:43:01.166Z,6.7
2018-07-06T15:48:01.102Z,6.3
2018-07-06T15:53:01.172Z,6.4
2018-07-06T15:58:01.107Z,6.3
2018-07-06T16:03:01.240Z,6.8
2018-07-06T16:08:01.143Z,6.7
2018-07-06T16:13:01.177Z,6.6
2018-07-06T16:28:01.228Z,6.0
2018-07-06T16:33:01.165Z,6.8
2018-07-06T16:38:01.101Z,7.3
2018-07-06T16:43:01.232Z,7.2
2018-07-06T16:48:01.102Z,7.9
2018-07-06T16:54:06.090Z,8.3
2018-07-06T16:59:01.195Z,7.8
2018-07-06T17:14:01.162Z,7.0
2018-07-06T17:19:01.169Z,7.4
2018-07-06T17:24:01.100Z,11.0
2018-07-06T17:29:01.154Z,11.9
2018-07-06T17:34:01.091Z,12.0
2018-07-06T17:44:01.161Z,12.8
2018-07-06T17:49:01.163Z,10.0
2018-07-06T17:54:01.094Z,9.1
2018-07-06T17:59:01.164Z,9.0
2018-07-06T18:04:01.102Z,9.6
2018-07-06T18:09:01.151Z,8.4
2018-07-06T18:14:01.098Z,8.1
2018-07-06T18:19:01.157Z,8.8
2018-07-06T18:24:01.068Z,9.0
2018-07-06T18:34:01.226Z,9.3
2018-07-06T18:39:01.166Z,9.1
2018-07-06T18:44:01.106Z,8.1
2018-07-06T18:49:01.121Z,8.0
2018-07-06T18:54:01.106Z,7.6
2018-07-06T18:59:01.094Z,7.4
2018-07-06T19:04:01.094Z,7.0
2018-07-06T19:09:01.096Z,7.2
2018-07-06T19:14:01.101Z,7.4
2018-07-06T19:29:01.234Z,7.6
2018-07-06T19:34:01.106Z,7.3
2018-07-06T19:39:01.089Z,6.7
2018-07-06T19:44:01.091Z,6.9
2018-07-06T19:49:01.161Z,6.5
2018-07-06T19:54:01.102Z,6.8
2018-07-06T19:59:01.228Z,7.1
2018-07-06T20:04:01.105Z,7.5
2018-07-06T20:09:01.180Z,7.6
2018-07-06T20:14:01.109Z,7.8
2018-07-06T20:19:01.178Z,7.2
2018-07-06T20:24:01.089Z,7.1
2018-07-06T20:29:01.216Z,6.9
2018-07-06T20:34:01.104Z,6.4
2018-07-06T20:39:01.090Z,7.3
2018-07-06T20:44:01.100Z,8.1
2018-07-06T20:49:01.168Z,8.0
2018-07-06T20:54:01.173Z,7.6
2018-07-06T20:59:01.174Z,7.3
2018-07-06T21:04:01.068Z,6.8
2018-07-06T21:09:01.091Z,6.4
2018-07-06T21:14:01.096Z,6.2
2018-07-06T21:19:01.224Z,6.7
2018-07-06T21:24:01.095Z,7.2
2018-07-06T21:29:01.162Z,6.7
2018-07-06T21:34:01.099Z,6.6
2018-07-06T21:39:01.180Z,6.9
2018-07-06T21:44:01.103Z,7.6
2018-07-06T21:49:01.221Z,7.1
2018-07-06T21:54:01.089Z,7.7
2018-07-06T21:59:01.155Z,7.3
2018-07-06T22:04:01.105Z,7.7
2018-07-06T22:09:01.167Z,6.5
2018-07-06T22:14:01.123Z,6.9
2018-07-06T22:19:01.170Z,6.7
2018-07-06T22:24:01.111Z,6.9
2018-07-06T22:30:01.225Z,6.4
2018-07-06T22:35:01.118Z,7.4
2018-07-06T22:40:01.170Z,8.0
2018-07-06T22:45:01.095Z,8.3
2018-07-06T22:50:01.166Z,8.7
2018-07-06T22:55:01.124Z,8.6
2018-07-06T23:00:01.235Z,8.0
2018-07-06T23:06:01.095Z,7.8
2018-07-06T23:11:01.233Z,7.6
2018-07-06T23:16:01.064Z,6.8
2018-07-06T23:21:01.105Z,7.5
2018-07-06T23:26:01.098Z,7.7
2018-07-06T23:31:01.168Z,7.4
2018-07-06T23:36:01.106Z,7.2
2018-07-06T23:41:01.156Z,8.4
2018-07-06T23:46:01.092Z,8.0
2018-07-06T23:51:01.161Z,7.6
2018-07-06T23:56:01.065Z,7.7
